createdAt,value
2017-06-10T00:00:47.098Z,40.4
2017-06-10T00:01:47.060Z,40.89
2017-06-10T00:02:47.067Z,40.31
2017-06-10T00:03:47.075Z,40.5
2017-06-10T00:04:47.086Z,40.69
2017-06-10T00:05:47.092Z,41.08
2017-06-10T00:06:47.101Z,40.59
2017-06-10T00:07:46.805Z,40.31
2017-06-10T00:08:47.117Z,39.72
2017-06-10T00:09:46.816Z,39.82
2017-06-10T00:10:47.139Z,39.92
2017-06-10T00:11:47.141Z,40.01
2017-06-10T00:12:47.152Z,40.01
2017-06-10T00:13:47.159Z,40.19
2017-06-10T00:14:47.170Z,39.62
2017-06-10T00:15:47.178Z,39.32
2017-06-10T00:16:46.880Z,39.41
2017-06-10T00:17:47.194Z,39.41
2017-06-10T00:18:46.890Z,39.8
2017-06-10T00:19:47.259Z,39.41
2017-06-10T00:20:47.219Z,39.12
2017-06-10T00:21:46.913Z,39.32
2017-06-10T00:22:47.233Z,39.22
2017-06-10T00:23:47.244Z,39.12
2017-06-10T00:24:46.940Z,39.12
2017-06-10T00:25:47.260Z,39.03
2017-06-10T00:26:47.265Z,39.32
2017-06-10T00:27:47.275Z,39.03
2017-06-10T00:28:46.971Z,39.03
2017-06-10T00:29:47.291Z,39.32
2017-06-10T00:30:47.302Z,39.12
2017-06-10T00:31:47.310Z,39.12
2017-06-10T00:32:47.004Z,39.51
2017-06-10T00:33:47.012Z,39.22
2017-06-10T00:34:47.070Z,39.51
2017-06-10T00:35:47.340Z,39.32
2017-06-10T00:36:47.348Z,39.03
2017-06-10T00:37:47.357Z,39.41
2017-06-10T00:38:47.415Z,39.22
2017-06-10T00:39:47.373Z,39.14
2017-06-10T00:40:47.429Z,39.34
2017-06-10T00:41:47.389Z,39.24
2017-06-10T00:42:47.399Z,39.32
2017-06-10T00:43:47.411Z,39.14
2017-06-10T00:44:47.414Z,39.14
2017-06-10T00:45:47.427Z,39.04
2017-06-10T00:46:47.433Z,39.34
2017-06-10T00:47:47.440Z,39.04
2017-06-10T00:48:47.138Z,39.24
2017-06-10T00:49:47.197Z,39.04
2017-06-10T00:50:47.464Z,39.14
2017-06-10T00:51:47.471Z,39.04
2017-06-10T00:52:47.484Z,39.14
2017-06-10T00:53:47.489Z,39.53
2017-06-10T00:54:47.600Z,39.24
2017-06-10T00:55:47.508Z,39.14
2017-06-10T00:56:47.517Z,39.04
2017-06-10T00:57:47.524Z,39.04
2017-06-10T00:58:47.544Z,39.24
2017-06-10T00:59:47.543Z,39.14
2017-06-10T01:00:47.598Z,39.43
2017-06-10T01:01:47.248Z,39.14
2017-06-10T01:02:47.570Z,39.43
2017-06-10T01:03:47.312Z,39.24
2017-06-10T01:04:47.636Z,39.03
2017-06-10T01:05:47.589Z,39.24
2017-06-10T01:06:47.608Z,39.24
2017-06-10T01:07:47.608Z,39.43
2017-06-10T01:08:47.618Z,39.34
2017-06-10T01:09:47.628Z,39.34
2017-06-10T01:10:47.685Z,39.34
2017-06-10T01:11:47.380Z,39.24
2017-06-10T01:12:47.342Z,39.04
2017-06-10T01:13:47.346Z,39.34
2017-06-10T01:14:47.669Z,39.53
2017-06-10T01:15:47.674Z,39.34
2017-06-10T01:16:47.681Z,39.34
2017-06-10T01:17:47.690Z,39.34
2017-06-10T01:18:47.756Z,39.14
2017-06-10T01:19:47.712Z,39.14
2017-06-10T01:20:47.719Z,39.34
2017-06-10T01:21:47.725Z,39.34
2017-06-10T01:22:47.737Z,39.34
2017-06-10T01:23:47.744Z,39.34
2017-06-10T01:24:47.754Z,39.04
2017-06-10T01:25:47.812Z,39.24
2017-06-10T01:26:47.767Z,39.14
2017-06-10T01:27:47.776Z,39.34
2017-06-10T01:28:47.785Z,39.24
2017-06-10T01:29:48.093Z,39.34
2017-06-10T01:30:47.802Z,39.43
2017-06-10T01:31:47.813Z,39.53
2017-06-10T01:32:47.817Z,39.34
2017-06-10T01:33:47.829Z,39.14
2017-06-10T01:34:47.836Z,39.04
2017-06-10T01:35:47.842Z,39.14
2017-06-10T01:36:47.884Z,39.24
2017-06-10T01:37:47.862Z,39.14
2017-06-10T01:38:47.868Z,39.14
2017-06-10T01:39:47.566Z,39.24
2017-06-10T01:40:47.579Z,39.03
2017-06-10T01:41:47.894Z,39.04
2017-06-10T01:42:47.903Z,39.12
2017-06-10T01:43:47.910Z,39.24
2017-06-10T01:44:47.607Z,39.04
2017-06-10T01:45:47.929Z,39.04
2017-06-10T01:46:47.938Z,39.22
2017-06-10T01:47:47.947Z,39.14
2017-06-10T01:48:47.958Z,39.32
2017-06-10T01:49:47.652Z,39.24
2017-06-10T01:50:47.657Z,39.34
2017-06-10T01:51:48.030Z,39.41
2017-06-10T01:52:47.988Z,39.22
2017-06-10T01:53:47.994Z,39.22
2017-06-10T01:54:48.004Z,39.34
2017-06-10T01:55:48.012Z,39.43
2017-06-10T01:56:48.030Z,39.12
2017-06-10T01:57:48.026Z,39.43
2017-06-10T01:58:48.042Z,39.41
2017-06-10T01:59:48.096Z,39.51
2017-06-10T02:00:48.053Z,39.41
2017-06-10T02:01:48.061Z,39.22
2017-06-10T02:02:48.070Z,39.32
2017-06-10T02:03:48.079Z,39.41
2017-06-10T02:04:48.086Z,38.76
2017-06-10T02:05:48.096Z,39.41
2017-06-10T02:06:48.103Z,39.41
2017-06-10T02:07:48.111Z,39.32
2017-06-10T02:08:48.170Z,38.73
2017-06-10T02:09:48.129Z,38.83
2017-06-10T02:10:48.136Z,38.83
2017-06-10T02:11:48.144Z,38.64
2017-06-10T02:12:48.154Z,38.83
2017-06-10T02:13:48.168Z,38.64
2017-06-10T02:14:48.172Z,38.83
2017-06-10T02:15:48.179Z,39.04
2017-06-10T02:16:48.200Z,38.83
2017-06-10T02:17:48.195Z,38.83
2017-06-10T02:18:47.895Z,38.73
2017-06-10T02:19:48.213Z,38.93
2017-06-10T02:20:47.912Z,38.83
2017-06-10T02:21:48.229Z,38.83
2017-06-10T02:22:48.239Z,38.66
2017-06-10T02:23:48.295Z,38.83
2017-06-10T02:24:48.254Z,38.83
2017-06-10T02:25:48.265Z,38.83
2017-06-10T02:26:47.961Z,38.83
2017-06-10T02:27:48.282Z,38.83
2017-06-10T02:28:48.287Z,38.73
2017-06-10T02:29:47.989Z,38.93
2017-06-10T02:30:48.304Z,38.95
2017-06-10T02:31:48.311Z,38.83
2017-06-10T02:32:48.320Z,38.64
2017-06-10T02:33:48.331Z,38.64
2017-06-10T02:34:48.339Z,38.54
2017-06-10T02:35:48.086Z,38.83
2017-06-10T02:36:48.354Z,39.03
2017-06-10T02:37:48.412Z,38.73
2017-06-10T02:38:48.065Z,38.83
2017-06-10T02:39:48.068Z,38.83
2017-06-10T02:40:48.388Z,38.83
2017-06-10T02:41:48.400Z,38.64
2017-06-10T02:42:48.406Z,38.93
2017-06-10T02:43:48.411Z,38.93
2017-06-10T02:44:48.162Z,38.83
2017-06-10T02:45:48.429Z,38.83
2017-06-10T02:46:48.439Z,38.83
2017-06-10T02:47:48.446Z,38.73
2017-06-10T02:48:48.454Z,38.64
2017-06-10T02:49:48.462Z,38.64
2017-06-10T02:50:48.471Z,38.73
2017-06-10T02:51:48.479Z,38.73
2017-06-10T02:52:48.537Z,38.45
2017-06-10T02:53:48.496Z,38.83
2017-06-10T02:54:48.504Z,38.73
2017-06-10T02:55:48.513Z,38.73
2017-06-10T02:56:48.215Z,38.64
2017-06-10T02:57:48.630Z,38.54
2017-06-10T02:58:48.539Z,38.54
2017-06-10T02:59:48.546Z,38.73
2017-06-10T03:00:48.244Z,38.54
2017-06-10T03:01:48.563Z,38.73
2017-06-10T03:02:48.622Z,38.64
2017-06-10T03:03:48.579Z,38.64
2017-06-10T03:04:48.589Z,38.64
2017-06-10T03:05:48.598Z,38.45
2017-06-10T03:06:48.604Z,38.54
2017-06-10T03:07:48.356Z,38.54
2017-06-10T03:08:48.313Z,38.54
2017-06-10T03:09:48.631Z,38.54
2017-06-10T03:10:48.690Z,38.54
2017-06-10T03:11:48.647Z,38.54
2017-06-10T03:12:48.344Z,38.45
2017-06-10T03:13:48.664Z,38.45
2017-06-10T03:14:48.674Z,38.54
2017-06-10T03:15:48.680Z,38.25
2017-06-10T03:16:48.381Z,38.45
2017-06-10T03:17:48.697Z,38.35
2017-06-10T03:18:48.706Z,38.15
2017-06-10T03:19:48.715Z,38.35
2017-06-10T03:20:48.413Z,38.54
2017-06-10T03:21:48.732Z,38.45
2017-06-10T03:22:48.745Z,38.25
2017-06-10T03:23:48.747Z,38.35
2017-06-10T03:24:48.756Z,38.15
2017-06-10T03:25:48.453Z,38.45
2017-06-10T03:26:48.771Z,38.45
2017-06-10T03:27:48.536Z,38.45
2017-06-10T03:28:48.481Z,37.87
2017-06-10T03:29:48.800Z,38.37
2017-06-10T03:30:48.502Z,38.45
2017-06-10T03:31:48.816Z,38.06
2017-06-10T03:32:48.872Z,38.25
2017-06-10T03:33:48.831Z,38.15
2017-06-10T03:34:48.890Z,38.45
2017-06-10T03:35:48.846Z,38.45
2017-06-10T03:36:48.854Z,38.54
2017-06-10T03:37:48.865Z,38.45
2017-06-10T03:38:48.877Z,38.25
2017-06-10T03:39:48.879Z,38.35
2017-06-10T03:40:48.890Z,38.54
2017-06-10T03:41:48.898Z,38.15
2017-06-10T03:42:48.908Z,38.25
2017-06-10T03:43:48.913Z,38.25
2017-06-10T03:44:48.923Z,38.35
2017-06-10T03:45:48.934Z,38.35
2017-06-10T03:46:48.939Z,38.35
2017-06-10T03:47:48.948Z,38.35
2017-06-10T03:48:48.647Z,38.25
2017-06-10T03:49:48.966Z,38.25
2017-06-10T03:50:48.972Z,38.45
2017-06-10T03:51:48.981Z,38.25
2017-06-10T03:52:48.989Z,38.35
2017-06-10T03:53:49.000Z,38.25
2017-06-10T03:54:49.006Z,38.25
2017-06-10T03:55:48.708Z,38.25
2017-06-10T03:56:48.712Z,38.35
2017-06-10T03:57:49.031Z,38.25
2017-06-10T03:58:49.088Z,38.35
2017-06-10T03:59:49.049Z,38.15
2017-06-10T04:00:49.057Z,38.35
2017-06-10T04:01:49.063Z,38.35
2017-06-10T04:02:49.074Z,38.35
2017-06-10T04:03:48.770Z,38.25
2017-06-10T04:04:49.092Z,38.25
2017-06-10T04:05:48.792Z,37.96
2017-06-10T04:06:49.113Z,38.15
2017-06-10T04:07:49.114Z,38.06
2017-06-10T04:08:48.815Z,37.96
2017-06-10T04:09:49.130Z,38.25
2017-06-10T04:10:49.140Z,37.96
2017-06-10T04:11:49.198Z,37.96
2017-06-10T04:12:49.157Z,38.06
2017-06-10T04:13:49.164Z,38.15
2017-06-10T04:14:49.174Z,38.15
2017-06-10T04:15:49.182Z,38.15
2017-06-10T04:16:49.489Z,38.06
2017-06-10T04:17:49.196Z,37.87
2017-06-10T04:18:49.207Z,37.96
2017-06-10T04:19:49.214Z,38.06
2017-06-10T04:20:49.223Z,37.87
2017-06-10T04:21:49.283Z,38.06
2017-06-10T04:22:49.241Z,37.96
2017-06-10T04:23:49.248Z,37.96
2017-06-10T04:24:49.256Z,37.79
2017-06-10T04:25:49.265Z,37.98
2017-06-10T04:26:49.274Z,38.06
2017-06-10T04:27:49.279Z,37.87
2017-06-10T04:28:49.296Z,37.57
2017-06-10T04:29:48.987Z,37.98
2017-06-10T04:30:49.343Z,37.59
2017-06-10T04:31:49.315Z,38.06
2017-06-10T04:32:49.322Z,38.07
2017-06-10T04:33:49.335Z,37.69
2017-06-10T04:34:49.339Z,38.07
2017-06-10T04:35:49.349Z,37.77
2017-06-10T04:36:49.356Z,37.69
2017-06-10T04:37:49.367Z,37.79
2017-06-10T04:38:49.375Z,37.98
2017-06-10T04:39:49.431Z,37.69
2017-06-10T04:40:49.389Z,37.88
2017-06-10T04:41:49.450Z,37.88
2017-06-10T04:42:49.407Z,37.79
2017-06-10T04:43:49.416Z,37.69
2017-06-10T04:44:49.424Z,37.69
2017-06-10T04:45:49.430Z,37.59
2017-06-10T04:46:49.130Z,37.49
2017-06-10T04:47:49.138Z,37.11
2017-06-10T04:48:49.148Z,36.93
2017-06-10T04:49:49.467Z,36.54
2017-06-10T04:50:49.474Z,36.46
2017-06-10T04:51:49.484Z,36.18
2017-06-10T04:52:49.492Z,36.46
2017-06-10T04:53:49.554Z,35.9
2017-06-10T04:54:49.510Z,35.61
2017-06-10T04:55:49.570Z,35.41
2017-06-10T04:56:49.530Z,35.13
2017-06-10T04:57:49.538Z,35.24
2017-06-10T04:58:49.548Z,34.95
2017-06-10T04:59:49.557Z,34.85
2017-06-10T05:00:49.567Z,35.05
2017-06-10T05:01:49.625Z,34.66
2017-06-10T05:02:49.585Z,34.38
2017-06-10T05:03:49.596Z,34.67
2017-06-10T05:04:49.655Z,34.38
2017-06-10T05:05:49.615Z,33.99
2017-06-10T05:06:49.627Z,33.91
2017-06-10T05:07:49.638Z,34.11
2017-06-10T05:08:49.644Z,33.91
2017-06-10T05:09:49.662Z,33.72
2017-06-10T05:10:49.667Z,33.53
2017-06-10T05:11:49.746Z,33.25
2017-06-10T05:12:49.690Z,33.06
2017-06-10T05:13:49.699Z,33.06
2017-06-10T05:14:49.706Z,32.86
2017-06-10T05:15:49.716Z,32.68
2017-06-10T05:16:49.729Z,32.49
2017-06-10T05:17:49.739Z,32.2
2017-06-10T05:18:49.747Z,31.73
2017-06-10T05:19:49.448Z,31.63
2017-06-10T05:20:49.771Z,31.73
2017-06-10T05:21:49.779Z,31.63
2017-06-10T05:22:49.843Z,31.45
2017-06-10T05:23:49.490Z,31.35
2017-06-10T05:24:49.811Z,31.06
2017-06-10T05:25:49.820Z,31.06
2017-06-10T05:26:49.834Z,30.39
2017-06-10T05:27:49.534Z,30.39
2017-06-10T05:28:49.856Z,30.02
2017-06-10T05:29:49.554Z,30.31
2017-06-10T05:30:49.876Z,29.63
2017-06-10T05:31:49.886Z,29.83
2017-06-10T05:32:49.897Z,29.25
2017-06-10T05:33:49.914Z,29.44
2017-06-10T05:34:49.610Z,28.97
2017-06-10T05:35:49.620Z,28.68
2017-06-10T05:36:49.941Z,28.3
2017-06-10T05:37:49.644Z,28.59
2017-06-10T05:38:49.962Z,28.4
2017-06-10T05:39:49.665Z,27.93
2017-06-10T05:40:50.008Z,28.03
2017-06-10T05:41:49.997Z,27.93
2017-06-10T05:42:50.005Z,27.83
2017-06-10T05:43:50.021Z,27.54
2017-06-10T05:44:50.030Z,27.93
2017-06-10T05:45:49.730Z,27.75
2017-06-10T05:46:50.052Z,27.55
2017-06-10T05:47:50.060Z,27.17
2017-06-10T05:48:49.764Z,27.37
2017-06-10T05:49:50.137Z,27.47
2017-06-10T05:50:49.786Z,26.68
2017-06-10T05:51:50.159Z,26.7
2017-06-10T05:52:50.123Z,26.6
2017-06-10T05:53:50.132Z,26.59
2017-06-10T05:54:49.831Z,26.5
2017-06-10T05:55:50.155Z,26.31
2017-06-10T05:56:50.164Z,26.12
2017-06-10T05:57:49.865Z,26.22
2017-06-10T05:58:50.190Z,26.12
2017-06-10T05:59:49.889Z,25.63
2017-06-10T06:00:49.901Z,25.45
2017-06-10T06:01:50.224Z,24.86
2017-06-10T06:02:49.925Z,24.76
2017-06-10T06:03:50.244Z,24.86
2017-06-10T06:04:50.258Z,24.76
2017-06-10T06:05:50.268Z,25.55
2017-06-10T06:06:50.327Z,25.15
